sensor_id;sensor_type;location;lat;lon;timestamp;P1;durP1;ratioP1;P2;durP2;ratioP2
7426;SDS011;3755;59.316;18.092;2023-08-07T00:02:13;24.58;;;18.13;;
7426;SDS011;3755;59.316;18.092;2023-08-07T00:04:40;24.67;;;19.25;;
7426;SDS011;3755;59.316;18.092;2023-08-07T00:07:08;24.45;;;18.45;;
7426;SDS011;3755;59.316;18.092;2023-08-07T00:09:35;28.83;;;19.48;;
7426;SDS011;3755;59.316;18.092;2023-08-07T00:12:02;24.38;;;18.58;;
7426;SDS011;3755;59.316;18.092;2023-08-07T00:14:31;25.00;;;18.83;;
7426;SDS011;3755;59.316;18.092;2023-08-07T00:16:58;24.17;;;19.08;;
7426;SDS011;3755;59.316;18.092;2023-08-07T00:19:25;24.52;;;18.98;;
7426;SDS011;3755;59.316;18.092;2023-08-07T00:21:52;22.48;;;18.67;;
7426;SDS011;3755;59.316;18.092;2023-08-07T00:24:19;23.80;;;20.00;;
7426;SDS011;3755;59.316;18.092;2023-08-07T00:26:46;23.48;;;18.17;;
7426;SDS011;3755;59.316;18.092;2023-08-07T00:29:14;26.33;;;18.50;;
7426;SDS011;3755;59.316;18.092;2023-08-07T00:31:42;27.33;;;18.63;;
7426;SDS011;3755;59.316;18.092;2023-08-07T00:34:09;25.05;;;18.88;;
7426;SDS011;3755;59.316;18.092;2023-08-07T00:36:36;25.25;;;17.25;;
7426;SDS011;3755;59.316;18.092;2023-08-07T00:39:03;26.83;;;19.20;;
7426;SDS011;3755;59.316;18.092;2023-08-07T00:41:30;28.38;;;19.17;;
7426;SDS011;3755;59.316;18.092;2023-08-07T00:43:57;30.80;;;19.77;;
7426;SDS011;3755;59.316;18.092;2023-08-07T00:46:25;32.83;;;21.55;;
7426;SDS011;3755;59.316;18.092;2023-08-07T00:48:54;29.65;;;19.95;;
7426;SDS011;3755;59.316;18.092;2023-08-07T00:51:22;29.45;;;20.13;;
7426;SDS011;3755;59.316;18.092;2023-08-07T00:53:50;27.55;;;21.30;;
7426;SDS011;3755;59.316;18.092;2023-08-07T00:56:17;33.17;;;22.27;;
7426;SDS011;3755;59.316;18.092;2023-08-07T00:58:45;30.73;;;21.15;;
7426;SDS011;3755;59.316;18.092;2023-08-07T01:01:12;25.80;;;21.13;;
7426;SDS011;3755;59.316;18.092;2023-08-07T01:03:39;25.42;;;19.65;;
7426;SDS011;3755;59.316;18.092;2023-08-07T01:06:08;26.70;;;19.88;;
7426;SDS011;3755;59.316;18.092;2023-08-07T01:08:35;27.13;;;18.42;;
7426;SDS011;3755;59.316;18.092;2023-08-07T01:11:15;33.85;;;20.83;;
7426;SDS011;3755;59.316;18.092;2023-08-07T01:13:51;42.30;;;22.60;;
7426;SDS011;3755;59.316;18.092;2023-08-07T01:16:26;37.25;;;20.83;;
7426;SDS011;3755;59.316;18.092;2023-08-07T01:18:58;33.03;;;20.77;;
7426;SDS011;3755;59.316;18.092;2023-08-07T01:21:29;27.33;;;20.00;;
7426;SDS011;3755;59.316;18.092;2023-08-07T01:23:59;30.65;;;19.02;;
7426;SDS011;3755;59.316;18.092;2023-08-07T01:26:26;27.80;;;18.10;;
7426;SDS011;3755;59.316;18.092;2023-08-07T01:28:57;31.30;;;18.55;;
7426;SDS011;3755;59.316;18.092;2023-08-07T01:31:28;24.35;;;17.58;;
7426;SDS011;3755;59.316;18.092;2023-08-07T01:33:58;27.50;;;16.80;;
7426;SDS011;3755;59.316;18.092;2023-08-07T01:36:28;25.15;;;19.52;;
7426;SDS011;3755;59.316;18.092;2023-08-07T01:38:57;25.60;;;16.95;;
7426;SDS011;3755;59.316;18.092;2023-08-07T01:41:27;27.67;;;18.30;;
7426;SDS011;3755;59.316;18.092;2023-08-07T01:43:54;23.65;;;18.08;;
7426;SDS011;3755;59.316;18.092;2023-08-07T01:46:21;35.72;;;21.92;;
7426;SDS011;3755;59.316;18.092;2023-08-07T01:48:48;25.83;;;19.27;;
7426;SDS011;3755;59.316;18.092;2023-08-07T01:51:15;28.58;;;19.38;;
7426;SDS011;3755;59.316;18.092;2023-08-07T01:53:42;23.98;;;16.45;;
7426;SDS011;3755;59.316;18.092;2023-08-07T01:56:10;27.75;;;18.80;;
7426;SDS011;3755;59.316;18.092;2023-08-07T01:58:38;22.08;;;18.05;;
7426;SDS011;3755;59.316;18.092;2023-08-07T02:01:05;29.02;;;18.95;;
7426;SDS011;3755;59.316;18.092;2023-08-07T02:03:32;32.67;;;21.02;;
7426;SDS011;3755;59.316;18.092;2023-08-07T02:06:00;27.13;;;18.73;;
7426;SDS011;3755;59.316;18.092;2023-08-07T02:08:27;28.00;;;19.33;;
7426;SDS011;3755;59.316;18.092;2023-08-07T02:10:54;36.22;;;23.60;;
7426;SDS011;3755;59.316;18.092;2023-08-07T02:13:21;24.70;;;17.83;;
7426;SDS011;3755;59.316;18.092;2023-08-07T02:15:50;26.83;;;18.50;;
7426;SDS011;3755;59.316;18.092;2023-08-07T02:18:17;33.55;;;20.17;;
7426;SDS011;3755;59.316;18.092;2023-08-07T02:20:44;40.20;;;26.27;;
7426;SDS011;3755;59.316;18.092;2023-08-07T02:23:12;29.13;;;21.23;;
7426;SDS011;3755;59.316;18.092;2023-08-07T02:25:39;33.00;;;21.55;;
7426;SDS011;3755;59.316;18.092;2023-08-07T02:28:06;27.73;;;18.88;;
7426;SDS011;3755;59.316;18.092;2023-08-07T02:30:33;32.67;;;22.25;;
7426;SDS011;3755;59.316;18.092;2023-08-07T02:33:02;25.92;;;17.95;;
7426;SDS011;3755;59.316;18.092;2023-08-07T02:35:29;33.00;;;18.95;;
7426;SDS011;3755;59.316;18.092;2023-08-07T02:37:56;26.58;;;18.00;;
7426;SDS011;3755;59.316;18.092;2023-08-07T02:40:23;28.20;;;18.45;;
7426;SDS011;3755;59.316;18.092;2023-08-07T02:42:50;25.75;;;18.55;;
7426;SDS011;3755;59.316;18.092;2023-08-07T02:45:17;27.27;;;18.63;;
7426;SDS011;3755;59.316;18.092;2023-08-07T02:47:44;27.40;;;17.67;;
7426;SDS011;3755;59.316;18.092;2023-08-07T02:50:13;20.20;;;15.48;;
7426;SDS011;3755;59.316;18.092;2023-08-07T02:52:40;25.30;;;16.45;;
7426;SDS011;3755;59.316;18.092;2023-08-07T02:55:07;25.50;;;16.23;;
7426;SDS011;3755;59.316;18.092;2023-08-07T02:57:34;26.70;;;18.48;;
7426;SDS011;3755;59.316;18.092;2023-08-07T03:00:02;20.58;;;15.02;;
7426;SDS011;3755;59.316;18.092;2023-08-07T03:02:29;26.90;;;16.25;;
7426;SDS011;3755;59.316;18.092;2023-08-07T03:04:56;22.17;;;17.00;;
7426;SDS011;3755;59.316;18.092;2023-08-07T03:07:25;23.90;;;16.33;;
7426;SDS011;3755;59.316;18.092;2023-08-07T03:09:52;22.92;;;15.32;;
7426;SDS011;3755;59.316;18.092;2023-08-07T03:12:19;21.55;;;15.05;;
7426;SDS011;3755;59.316;18.092;2023-08-07T03:14:46;22.35;;;15.55;;
7426;SDS011;3755;59.316;18.092;2023-08-07T03:17:13;21.35;;;14.32;;
7426;SDS011;3755;59.316;18.092;2023-08-07T03:19:42;21.45;;;14.27;;
7426;SDS011;3755;59.316;18.092;2023-08-07T03:22:09;16.60;;;13.70;;
7426;SDS011;3755;59.316;18.092;2023-08-07T03:24:38;16.08;;;12.77;;
7426;SDS011;3755;59.316;18.092;2023-08-07T03:27:05;18.42;;;13.75;;
7426;SDS011;3755;59.316;18.092;2023-08-07T03:29:32;17.33;;;12.68;;
7426;SDS011;3755;59.316;18.092;2023-08-07T03:31:59;15.38;;;12.15;;
7426;SDS011;3755;59.316;18.092;2023-08-07T03:34:26;17.20;;;12.70;;
7426;SDS011;3755;59.316;18.092;2023-08-07T03:36:53;16.65;;;13.15;;
7426;SDS011;3755;59.316;18.092;2023-08-07T03:39:20;12.40;;;10.38;;
7426;SDS011;3755;59.316;18.092;2023-08-07T03:41:49;13.05;;;9.18;;
7426;SDS011;3755;59.316;18.092;2023-08-07T03:44:16;11.93;;;9.75;;
7426;SDS011;3755;59.316;18.092;2023-08-07T03:46:43;12.27;;;9.13;;
7426;SDS011;3755;59.316;18.092;2023-08-07T03:49:10;14.75;;;9.75;;
7426;SDS011;3755;59.316;18.092;2023-08-07T03:51:37;13.57;;;11.93;;
7426;SDS011;3755;59.316;18.092;2023-08-07T03:54:04;16.90;;;12.27;;
7426;SDS011;3755;59.316;18.092;2023-08-07T03:56:32;14.52;;;11.45;;
7426;SDS011;3755;59.316;18.092;2023-08-07T03:59:03;14.38;;;12.55;;
7426;SDS011;3755;59.316;18.092;2023-08-07T04:01:30;14.60;;;11.13;;
7426;SDS011;3755;59.316;18.092;2023-08-07T04:03:57;17.83;;;13.73;;
7426;SDS011;3755;59.316;18.092;2023-08-07T04:06:24;16.00;;;12.60;;
7426;SDS011;3755;59.316;18.092;2023-08-07T04:08:52;15.60;;;12.10;;
7426;SDS011;3755;59.316;18.092;2023-08-07T04:11:19;17.83;;;12.10;;
7426;SDS011;3755;59.316;18.092;2023-08-07T04:13:46;13.85;;;12.32;;
7426;SDS011;3755;59.316;18.092;2023-08-07T04:16:14;14.15;;;12.65;;
7426;SDS011;3755;59.316;18.092;2023-08-07T04:18:42;15.20;;;11.90;;
7426;SDS011;3755;59.316;18.092;2023-08-07T04:21:09;15.13;;;11.95;;
7426;SDS011;3755;59.316;18.092;2023-08-07T04:23:36;13.77;;;11.80;;
7426;SDS011;3755;59.316;18.092;2023-08-07T04:26:03;14.75;;;12.55;;
7426;SDS011;3755;59.316;18.092;2023-08-07T04:28:30;18.65;;;13.35;;
7426;SDS011;3755;59.316;18.092;2023-08-07T04:30:57;19.38;;;15.20;;
7426;SDS011;3755;59.316;18.092;2023-08-07T04:33:26;16.52;;;14.45;;
7426;SDS011;3755;59.316;18.092;2023-08-07T04:35:53;18.48;;;15.15;;
7426;SDS011;3755;59.316;18.092;2023-08-07T04:38:20;19.13;;;15.98;;
7426;SDS011;3755;59.316;18.092;2023-08-07T04:40:49;22.38;;;15.98;;
7426;SDS011;3755;59.316;18.092;2023-08-07T04:43:17;23.88;;;16.35;;
7426;SDS011;3755;59.316;18.092;2023-08-07T04:45:45;20.67;;;15.90;;
7426;SDS011;3755;59.316;18.092;2023-08-07T04:48:13;23.13;;;18.42;;
7426;SDS011;3755;59.316;18.092;2023-08-07T04:50:42;24.70;;;18.00;;
7426;SDS011;3755;59.316;18.092;2023-08-07T04:53:09;23.13;;;17.48;;
7426;SDS011;3755;59.316;18.092;2023-08-07T04:55:36;22.80;;;19.27;;
7426;SDS011;3755;59.316;18.092;2023-08-07T04:58:03;27.15;;;18.88;;
7426;SDS011;3755;59.316;18.092;2023-08-07T05:00:30;27.20;;;19.65;;
7426;SDS011;3755;59.316;18.092;2023-08-07T05:02:58;31.30;;;20.95;;
7426;SDS011;3755;59.316;18.092;2023-08-07T05:05:25;31.38;;;22.23;;
7426;SDS011;3755;59.316;18.092;2023-08-07T05:07:53;29.05;;;20.08;;
7426;SDS011;3755;59.316;18.092;2023-08-07T05:10:21;24.70;;;20.60;;
7426;SDS011;3755;59.316;18.092;2023-08-07T05:12:48;26.85;;;21.20;;
7426;SDS011;3755;59.316;18.092;2023-08-07T05:15:20;31.38;;;22.70;;
7426;SDS011;3755;59.316;18.092;2023-08-07T05:17:47;32.13;;;22.42;;
7426;SDS011;3755;59.316;18.092;2023-08-07T05:20:14;30.17;;;21.90;;
7426;SDS011;3755;59.316;18.092;2023-08-07T05:22:41;28.95;;;23.33;;
7426;SDS011;3755;59.316;18.092;2023-08-07T05:25:10;32.95;;;23.15;;
7426;SDS011;3755;59.316;18.092;2023-08-07T05:27:40;28.90;;;20.58;;
7426;SDS011;3755;59.316;18.092;2023-08-07T05:30:08;31.05;;;22.77;;
7426;SDS011;3755;59.316;18.092;2023-08-07T05:32:35;29.10;;;19.67;;
7426;SDS011;3755;59.316;18.092;2023-08-07T05:35:04;24.45;;;18.95;;
7426;SDS011;3755;59.316;18.092;2023-08-07T05:37:32;28.75;;;20.35;;
7426;SDS011;3755;59.316;18.092;2023-08-07T05:39:59;23.60;;;17.08;;
7426;SDS011;3755;59.316;18.092;2023-08-07T05:42:28;24.65;;;19.77;;
7426;SDS011;3755;59.316;18.092;2023-08-07T05:44:55;24.10;;;18.05;;
7426;SDS011;3755;59.316;18.092;2023-08-07T05:47:22;24.25;;;18.63;;
7426;SDS011;3755;59.316;18.092;2023-08-07T05:49:49;22.63;;;19.67;;
7426;SDS011;3755;59.316;18.092;2023-08-07T05:52:17;26.00;;;18.98;;
7426;SDS011;3755;59.316;18.092;2023-08-07T05:54:44;28.80;;;20.00;;
7426;SDS011;3755;59.316;18.092;2023-08-07T05:57:12;29.27;;;19.77;;
7426;SDS011;3755;59.316;18.092;2023-08-07T05:59:40;24.42;;;19.90;;
7426;SDS011;3755;59.316;18.092;2023-08-07T06:02:07;27.85;;;20.38;;
7426;SDS011;3755;59.316;18.092;2023-08-07T06:04:36;23.30;;;19.45;;
7426;SDS011;3755;59.316;18.092;2023-08-07T06:07:04;26.67;;;20.30;;
7426;SDS011;3755;59.316;18.092;2023-08-07T06:09:32;23.48;;;19.58;;
7426;SDS011;3755;59.316;18.092;2023-08-07T06:11:59;26.00;;;19.73;;
7426;SDS011;3755;59.316;18.092;2023-08-07T06:14:26;26.50;;;19.58;;
7426;SDS011;3755;59.316;18.092;2023-08-07T06:16:55;27.88;;;19.25;;
7426;SDS011;3755;59.316;18.092;2023-08-07T06:19:23;24.02;;;18.65;;
7426;SDS011;3755;59.316;18.092;2023-08-07T06:21:52;24.63;;;18.63;;
7426;SDS011;3755;59.316;18.092;2023-08-07T06:24:19;25.45;;;19.70;;
7426;SDS011;3755;59.316;18.092;2023-08-07T06:26:46;25.63;;;17.77;;
7426;SDS011;3755;59.316;18.092;2023-08-07T06:29:14;25.67;;;18.55;;
7426;SDS011;3755;59.316;18.092;2023-08-07T06:31:41;23.67;;;18.20;;
7426;SDS011;3755;59.316;18.092;2023-08-07T06:34:10;25.88;;;19.42;;
7426;SDS011;3755;59.316;18.092;2023-08-07T06:36:37;23.08;;;16.65;;
7426;SDS011;3755;59.316;18.092;2023-08-07T06:39:04;21.00;;;17.55;;
7426;SDS011;3755;59.316;18.092;2023-08-07T06:41:31;22.33;;;16.90;;
7426;SDS011;3755;59.316;18.092;2023-08-07T06:43:59;24.70;;;17.90;;
7426;SDS011;3755;59.316;18.092;2023-08-07T06:46:26;25.73;;;17.00;;
7426;SDS011;3755;59.316;18.092;2023-08-07T06:48:53;22.77;;;17.23;;
7426;SDS011;3755;59.316;18.092;2023-08-07T06:51:22;24.27;;;18.67;;
7426;SDS011;3755;59.316;18.092;2023-08-07T06:53:49;26.00;;;17.60;;
7426;SDS011;3755;59.316;18.092;2023-08-07T06:56:16;26.88;;;17.70;;
7426;SDS011;3755;59.316;18.092;2023-08-07T06:58:44;21.73;;;17.00;;
7426;SDS011;3755;59.316;18.092;2023-08-07T07:01:11;26.35;;;18.35;;
7426;SDS011;3755;59.316;18.092;2023-08-07T07:03:38;26.10;;;18.20;;
7426;SDS011;3755;59.316;18.092;2023-08-07T07:06:05;23.73;;;17.60;;
7426;SDS011;3755;59.316;18.092;2023-08-07T07:08:33;20.45;;;18.13;;
7426;SDS011;3755;59.316;18.092;2023-08-07T07:11:01;24.88;;;17.75;;
7426;SDS011;3755;59.316;18.092;2023-08-07T07:13:29;21.45;;;16.67;;
7426;SDS011;3755;59.316;18.092;2023-08-07T07:15:56;24.13;;;17.02;;
7426;SDS011;3755;59.316;18.092;2023-08-07T07:18:23;22.13;;;17.02;;
7426;SDS011;3755;59.316;18.092;2023-08-07T07:20:56;25.58;;;17.48;;
7426;SDS011;3755;59.316;18.092;2023-08-07T07:23:25;19.45;;;17.35;;
7426;SDS011;3755;59.316;18.092;2023-08-07T07:25:54;20.10;;;15.75;;
7426;SDS011;3755;59.316;18.092;2023-08-07T07:28:22;21.75;;;16.98;;
7426;SDS011;3755;59.316;18.092;2023-08-07T07:30:50;19.45;;;16.75;;
7426;SDS011;3755;59.316;18.092;2023-08-07T07:33:17;19.77;;;16.70;;
7426;SDS011;3755;59.316;18.092;2023-08-07T07:35:44;23.35;;;16.52;;
7426;SDS011;3755;59.316;18.092;2023-08-07T07:38:11;18.88;;;16.73;;
7426;SDS011;3755;59.316;18.092;2023-08-07T07:40:40;20.13;;;16.10;;
7426;SDS011;3755;59.316;18.092;2023-08-07T07:43:09;21.13;;;16.85;;
7426;SDS011;3755;59.316;18.092;2023-08-07T07:45:36;24.55;;;16.75;;
7426;SDS011;3755;59.316;18.092;2023-08-07T07:48:04;19.73;;;16.83;;
7426;SDS011;3755;59.316;18.092;2023-08-07T07:50:33;21.58;;;16.80;;
7426;SDS011;3755;59.316;18.092;2023-08-07T07:53:00;19.80;;;16.67;;
7426;SDS011;3755;59.316;18.092;2023-08-07T07:55:27;21.98;;;16.50;;
7426;SDS011;3755;59.316;18.092;2023-08-07T07:57:54;22.50;;;16.95;;
7426;SDS011;3755;59.316;18.092;2023-08-07T08:00:23;19.15;;;16.10;;
7426;SDS011;3755;59.316;18.092;2023-08-07T08:02:52;19.10;;;14.55;;
7426;SDS011;3755;59.316;18.092;2023-08-07T08:05:19;18.90;;;14.85;;
7426;SDS011;3755;59.316;18.092;2023-08-07T08:07:46;17.35;;;13.77;;
7426;SDS011;3755;59.316;18.092;2023-08-07T08:10:13;19.70;;;14.63;;
7426;SDS011;3755;59.316;18.092;2023-08-07T08:12:41;19.63;;;15.07;;
7426;SDS011;3755;59.316;18.092;2023-08-07T08:15:08;15.93;;;13.35;;
7426;SDS011;3755;59.316;18.092;2023-08-07T08:17:37;17.48;;;14.85;;
7426;SDS011;3755;59.316;18.092;2023-08-07T08:20:05;19.83;;;14.93;;
7426;SDS011;3755;59.316;18.092;2023-08-07T08:22:33;25.83;;;15.95;;
7426;SDS011;3755;59.316;18.092;2023-08-07T08:25:00;27.95;;;15.38;;
7426;SDS011;3755;59.316;18.092;2023-08-07T08:27:29;19.30;;;14.65;;
7426;SDS011;3755;59.316;18.092;2023-08-07T08:29:56;22.30;;;15.05;;
7426;SDS011;3755;59.316;18.092;2023-08-07T08:32:23;17.88;;;14.63;;
7426;SDS011;3755;59.316;18.092;2023-08-07T08:34:52;23.85;;;15.55;;
7426;SDS011;3755;59.316;18.092;2023-08-07T08:37:19;18.25;;;15.32;;
7426;SDS011;3755;59.316;18.092;2023-08-07T08:39:46;18.02;;;14.63;;
7426;SDS011;3755;59.316;18.092;2023-08-07T08:42:14;20.33;;;15.50;;
7426;SDS011;3755;59.316;18.092;2023-08-07T08:44:43;19.88;;;14.95;;
7426;SDS011;3755;59.316;18.092;2023-08-07T08:47:13;19.60;;;14.70;;
7426;SDS011;3755;59.316;18.092;2023-08-07T08:49:43;18.33;;;14.75;;
7426;SDS011;3755;59.316;18.092;2023-08-07T08:52:14;18.17;;;14.75;;
7426;SDS011;3755;59.316;18.092;2023-08-07T08:54:42;20.83;;;14.90;;
7426;SDS011;3755;59.316;18.092;2023-08-07T08:57:10;18.98;;;14.82;;
7426;SDS011;3755;59.316;18.092;2023-08-07T08:59:38;17.50;;;15.70;;
7426;SDS011;3755;59.316;18.092;2023-08-07T09:02:06;17.20;;;15.48;;
7426;SDS011;3755;59.316;18.092;2023-08-07T09:04:35;17.60;;;15.55;;
7426;SDS011;3755;59.316;18.092;2023-08-07T09:07:03;20.52;;;15.50;;
7426;SDS011;3755;59.316;18.092;2023-08-07T09:09:32;21.40;;;15.77;;
7426;SDS011;3755;59.316;18.092;2023-08-07T09:12:00;22.05;;;15.23;;
7426;SDS011;3755;59.316;18.092;2023-08-07T09:14:29;18.38;;;14.27;;
7426;SDS011;3755;59.316;18.092;2023-08-07T09:16:59;17.27;;;15.50;;
7426;SDS011;3755;59.316;18.092;2023-08-07T09:19:27;18.50;;;14.63;;
7426;SDS011;3755;59.316;18.092;2023-08-07T09:21:55;17.55;;;15.23;;
7426;SDS011;3755;59.316;18.092;2023-08-07T09:24:22;18.70;;;15.52;;
7426;SDS011;3755;59.316;18.092;2023-08-07T09:26:51;18.30;;;15.32;;
7426;SDS011;3755;59.316;18.092;2023-08-07T09:29:20;17.27;;;15.38;;
7426;SDS011;3755;59.316;18.092;2023-08-07T09:31:48;19.33;;;14.88;;
7426;SDS011;3755;59.316;18.092;2023-08-07T09:34:15;20.80;;;14.43;;
7426;SDS011;3755;59.316;18.092;2023-08-07T09:36:46;17.40;;;15.63;;
7426;SDS011;3755;59.316;18.092;2023-08-07T09:39:13;22.40;;;15.65;;
7426;SDS011;3755;59.316;18.092;2023-08-07T09:41:41;17.52;;;13.70;;
7426;SDS011;3755;59.316;18.092;2023-08-07T09:44:09;18.95;;;14.50;;
7426;SDS011;3755;59.316;18.092;2023-08-07T09:46:40;17.90;;;13.00;;
7426;SDS011;3755;59.316;18.092;2023-08-07T09:49:08;20.15;;;14.77;;
7426;SDS011;3755;59.316;18.092;2023-08-07T09:51:42;18.20;;;14.52;;
7426;SDS011;3755;59.316;18.092;2023-08-07T09:54:10;17.67;;;14.18;;
7426;SDS011;3755;59.316;18.092;2023-08-07T09:56:38;16.58;;;14.18;;
7426;SDS011;3755;59.316;18.092;2023-08-07T09:59:06;17.35;;;13.85;;
7426;SDS011;3755;59.316;18.092;2023-08-07T10:01:37;16.42;;;14.48;;
7426;SDS011;3755;59.316;18.092;2023-08-07T10:04:05;19.17;;;14.07;;
7426;SDS011;3755;59.316;18.092;2023-08-07T10:06:33;17.83;;;14.23;;
7426;SDS011;3755;59.316;18.092;2023-08-07T10:09:01;17.70;;;13.32;;
7426;SDS011;3755;59.316;18.092;2023-08-07T10:11:29;16.92;;;14.98;;
7426;SDS011;3755;59.316;18.092;2023-08-07T10:13:57;17.75;;;13.63;;
7426;SDS011;3755;59.316;18.092;2023-08-07T10:16:25;16.13;;;13.93;;
7426;SDS011;3755;59.316;18.092;2023-08-07T10:18:55;18.70;;;13.00;;
7426;SDS011;3755;59.316;18.092;2023-08-07T10:21:23;20.60;;;14.00;;
7426;SDS011;3755;59.316;18.092;2023-08-07T10:23:50;18.02;;;13.73;;
7426;SDS011;3755;59.316;18.092;2023-08-07T10:26:20;16.40;;;14.27;;
7426;SDS011;3755;59.316;18.092;2023-08-07T10:28:48;19.45;;;14.57;;
7426;SDS011;3755;59.316;18.092;2023-08-07T10:31:17;21.95;;;14.55;;
7426;SDS011;3755;59.316;18.092;2023-08-07T10:33:46;24.70;;;15.48;;
7426;SDS011;3755;59.316;18.092;2023-08-07T10:36:15;17.90;;;14.45;;
7426;SDS011;3755;59.316;18.092;2023-08-07T10:38:43;19.52;;;15.48;;
7426;SDS011;3755;59.316;18.092;2023-08-07T10:41:12;23.67;;;15.20;;
7426;SDS011;3755;59.316;18.092;2023-08-07T10:43:40;21.25;;;15.20;;
7426;SDS011;3755;59.316;18.092;2023-08-07T10:46:09;20.30;;;14.52;;
7426;SDS011;3755;59.316;18.092;2023-08-07T10:48:38;16.98;;;13.80;;
7426;SDS011;3755;59.316;18.092;2023-08-07T10:51:06;18.65;;;14.60;;
7426;SDS011;3755;59.316;18.092;2023-08-07T10:53:35;17.77;;;14.82;;
7426;SDS011;3755;59.316;18.092;2023-08-07T10:56:07;18.92;;;14.70;;
7426;SDS011;3755;59.316;18.092;2023-08-07T10:58:36;17.30;;;14.48;;
7426;SDS011;3755;59.316;18.092;2023-08-07T11:01:20;21.70;;;15.57;;
7426;SDS011;3755;59.316;18.092;2023-08-07T11:03:52;17.27;;;14.48;;
7426;SDS011;3755;59.316;18.092;2023-08-07T11:06:23;15.00;;;13.60;;
7426;SDS011;3755;59.316;18.092;2023-08-07T11:08:54;17.35;;;13.45;;
7426;SDS011;3755;59.316;18.092;2023-08-07T11:11:21;18.17;;;15.75;;
7426;SDS011;3755;59.316;18.092;2023-08-07T11:13:48;15.30;;;13.10;;
7426;SDS011;3755;59.316;18.092;2023-08-07T11:16:16;20.25;;;14.68;;
7426;SDS011;3755;59.316;18.092;2023-08-07T11:18:46;17.40;;;15.10;;
7426;SDS011;3755;59.316;18.092;2023-08-07T11:21:13;18.80;;;14.90;;
7426;SDS011;3755;59.316;18.092;2023-08-07T11:23:41;19.83;;;14.98;;
7426;SDS011;3755;59.316;18.092;2023-08-07T11:26:12;18.38;;;13.95;;
7426;SDS011;3755;59.316;18.092;2023-08-07T11:28:41;17.38;;;14.02;;
7426;SDS011;3755;59.316;18.092;2023-08-07T11:31:08;15.05;;;13.50;;
7426;SDS011;3755;59.316;18.092;2023-08-07T11:33:35;16.63;;;14.02;;
7426;SDS011;3755;59.316;18.092;2023-08-07T11:36:03;16.70;;;14.35;;
7426;SDS011;3755;59.316;18.092;2023-08-07T11:38:38;18.55;;;15.05;;
7426;SDS011;3755;59.316;18.092;2023-08-07T11:41:08;16.80;;;15.00;;
7426;SDS011;3755;59.316;18.092;2023-08-07T11:43:38;20.17;;;15.55;;
7426;SDS011;3755;59.316;18.092;2023-08-07T11:46:06;16.38;;;13.30;;
7426;SDS011;3755;59.316;18.092;2023-08-07T11:48:35;18.67;;;14.13;;
7426;SDS011;3755;59.316;18.092;2023-08-07T11:51:04;19.02;;;14.00;;
7426;SDS011;3755;59.316;18.092;2023-08-07T11:53:32;17.92;;;15.45;;
7426;SDS011;3755;59.316;18.092;2023-08-07T11:56:01;18.48;;;15.05;;
7426;SDS011;3755;59.316;18.092;2023-08-07T11:58:35;17.67;;;15.10;;
7426;SDS011;3755;59.316;18.092;2023-08-07T12:01:03;19.75;;;15.13;;
7426;SDS011;3755;59.316;18.092;2023-08-07T12:03:32;19.13;;;14.43;;
7426;SDS011;3755;59.316;18.092;2023-08-07T12:06:03;16.00;;;14.18;;
7426;SDS011;3755;59.316;18.092;2023-08-07T12:08:31;15.32;;;13.77;;
7426;SDS011;3755;59.316;18.092;2023-08-07T12:11:00;15.77;;;13.43;;
7426;SDS011;3755;59.316;18.092;2023-08-07T12:13:28;15.32;;;13.55;;
7426;SDS011;3755;59.316;18.092;2023-08-07T12:15:58;18.52;;;14.02;;
7426;SDS011;3755;59.316;18.092;2023-08-07T12:18:26;18.05;;;14.23;;
7426;SDS011;3755;59.316;18.092;2023-08-07T12:20:56;19.23;;;13.90;;
7426;SDS011;3755;59.316;18.092;2023-08-07T12:23:24;14.15;;;11.85;;
7426;SDS011;3755;59.316;18.092;2023-08-07T12:25:51;17.92;;;12.43;;
7426;SDS011;3755;59.316;18.092;2023-08-07T12:28:19;17.85;;;13.60;;
7426;SDS011;3755;59.316;18.092;2023-08-07T12:30:46;15.07;;;13.27;;
7426;SDS011;3755;59.316;18.092;2023-08-07T12:33:15;17.40;;;13.10;;
7426;SDS011;3755;59.316;18.092;2023-08-07T12:35:42;19.25;;;13.70;;
7426;SDS011;3755;59.316;18.092;2023-08-07T12:38:10;18.48;;;13.15;;
7426;SDS011;3755;59.316;18.092;2023-08-07T12:40:39;18.92;;;13.95;;
7426;SDS011;3755;59.316;18.092;2023-08-07T12:43:06;16.40;;;13.27;;
7426;SDS011;3755;59.316;18.092;2023-08-07T12:45:34;18.27;;;14.55;;
7426;SDS011;3755;59.316;18.092;2023-08-07T12:48:01;20.27;;;13.88;;
7426;SDS011;3755;59.316;18.092;2023-08-07T12:50:30;14.80;;;12.13;;
7426;SDS011;3755;59.316;18.092;2023-08-07T12:52:57;13.80;;;11.93;;
7426;SDS011;3755;59.316;18.092;2023-08-07T12:55:24;17.52;;;11.88;;
7426;SDS011;3755;59.316;18.092;2023-08-07T12:57:53;15.75;;;11.85;;
7426;SDS011;3755;59.316;18.092;2023-08-07T13:00:20;14.25;;;12.77;;
7426;SDS011;3755;59.316;18.092;2023-08-07T13:02:49;15.10;;;12.27;;
7426;SDS011;3755;59.316;18.092;2023-08-07T13:05:17;14.40;;;12.57;;
7426;SDS011;3755;59.316;18.092;2023-08-07T13:07:47;18.85;;;12.43;;
7426;SDS011;3755;59.316;18.092;2023-08-07T13:10:15;14.65;;;11.27;;
7426;SDS011;3755;59.316;18.092;2023-08-07T13:12:44;11.70;;;10.48;;
7426;SDS011;3755;59.316;18.092;2023-08-07T13:15:14;10.77;;;9.55;;
7426;SDS011;3755;59.316;18.092;2023-08-07T13:17:42;11.68;;;9.52;;
7426;SDS011;3755;59.316;18.092;2023-08-07T13:20:11;13.07;;;10.35;;
7426;SDS011;3755;59.316;18.092;2023-08-07T13:22:39;16.98;;;9.50;;
7426;SDS011;3755;59.316;18.092;2023-08-07T13:25:10;13.30;;;10.48;;
7426;SDS011;3755;59.316;18.092;2023-08-07T13:27:38;11.93;;;10.23;;
7426;SDS011;3755;59.316;18.092;2023-08-07T13:30:06;12.98;;;10.10;;
7426;SDS011;3755;59.316;18.092;2023-08-07T13:32:34;9.85;;;8.85;;
7426;SDS011;3755;59.316;18.092;2023-08-07T13:35:02;9.63;;;8.73;;
7426;SDS011;3755;59.316;18.092;2023-08-07T13:37:29;10.38;;;9.38;;
7426;SDS011;3755;59.316;18.092;2023-08-07T13:39:57;13.80;;;9.13;;
7426;SDS011;3755;59.316;18.092;2023-08-07T13:42:26;10.43;;;9.32;;
7426;SDS011;3755;59.316;18.092;2023-08-07T13:44:53;12.13;;;9.35;;
7426;SDS011;3755;59.316;18.092;2023-08-07T13:47:21;11.38;;;9.98;;
7426;SDS011;3755;59.316;18.092;2023-08-07T13:49:49;12.02;;;10.00;;
7426;SDS011;3755;59.316;18.092;2023-08-07T13:52:18;12.63;;;10.15;;
7426;SDS011;3755;59.316;18.092;2023-08-07T13:54:45;10.60;;;9.45;;
7426;SDS011;3755;59.316;18.092;2023-08-07T13:57:12;13.63;;;10.05;;
7426;SDS011;3755;59.316;18.092;2023-08-07T13:59:41;14.52;;;10.52;;
7426;SDS011;3755;59.316;18.092;2023-08-07T14:02:08;13.32;;;11.35;;
7426;SDS011;3755;59.316;18.092;2023-08-07T14:04:36;15.23;;;11.55;;
7426;SDS011;3755;59.316;18.092;2023-08-07T14:07:03;15.25;;;12.38;;
7426;SDS011;3755;59.316;18.092;2023-08-07T14:09:31;13.88;;;12.25;;
7426;SDS011;3755;59.316;18.092;2023-08-07T14:11:58;14.68;;;12.60;;
7426;SDS011;3755;59.316;18.092;2023-08-07T14:14:25;14.57;;;11.80;;
7426;SDS011;3755;59.316;18.092;2023-08-07T14:16:54;13.88;;;11.77;;
7426;SDS011;3755;59.316;18.092;2023-08-07T14:19:25;14.40;;;12.20;;
7426;SDS011;3755;59.316;18.092;2023-08-07T14:21:53;15.07;;;11.45;;
7426;SDS011;3755;59.316;18.092;2023-08-07T14:24:20;13.35;;;11.95;;
7426;SDS011;3755;59.316;18.092;2023-08-07T14:26:47;14.65;;;12.90;;
7426;SDS011;3755;59.316;18.092;2023-08-07T14:29:14;14.13;;;12.45;;
7426;SDS011;3755;59.316;18.092;2023-08-07T14:31:41;13.57;;;12.18;;
7426;SDS011;3755;59.316;18.092;2023-08-07T14:34:10;15.02;;;12.65;;
7426;SDS011;3755;59.316;18.092;2023-08-07T14:36:37;15.80;;;13.80;;
7426;SDS011;3755;59.316;18.092;2023-08-07T14:39:05;19.30;;;14.40;;
7426;SDS011;3755;59.316;18.092;2023-08-07T14:41:33;15.68;;;14.07;;